createdAt,value
2022-10-26T04:01:31.260Z,99.90
2022-10-26T04:06:27.291Z,99.90
2022-10-26T04:08:58.205Z,99.90
2022-10-26T04:11:25.915Z,99.90
2022-10-26T04:13:53.751Z,99.90
2022-10-26T04:21:19.459Z,99.90
2022-10-26T04:26:15.412Z,99.90
2022-10-26T04:38:37.708Z,99.90
2022-10-26T04:46:02.010Z,99.90
2022-10-26T04:48:29.790Z,99.90
2022-10-26T04:50:59.779Z,99.90
2022-10-26T04:58:29.403Z,99.90
2022-10-26T05:03:25.682Z,99.90
2022-10-26T05:08:21.659Z,99.90
2022-10-26T05:10:51.108Z,99.90
2022-10-26T05:13:18.952Z,99.90
2022-10-26T05:15:46.741Z,99.90
2022-10-26T05:18:14.536Z,99.90
2022-10-26T05:20:42.350Z,99.90
2022-10-26T05:23:13.872Z,99.90
2022-10-26T05:30:42.248Z,99.90
2022-10-26T05:33:11.838Z,99.90
2022-10-26T05:45:36.261Z,99.90
2022-10-26T05:48:04.224Z,99.90
2022-10-26T06:15:52.361Z,99.90
2022-10-26T06:18:30.623Z,99.90
2022-10-26T06:21:15.875Z,99.90
2022-10-26T06:26:26.759Z,99.90
2022-10-26T06:29:04.568Z,99.90
2022-10-26T06:34:01.963Z,99.90
2022-10-26T06:39:03.244Z,99.90
2022-10-26T06:41:34.108Z,99.90
2022-10-26T06:44:03.302Z,99.90
2022-10-26T06:46:37.659Z,99.90
2022-10-26T06:49:16.986Z,99.90
2022-10-26T06:51:50.696Z,99.90
2022-10-26T06:54:24.615Z,99.90
2022-10-26T06:56:53.690Z,99.90
2022-10-26T06:59:33.383Z,99.90
2022-10-26T07:02:04.219Z,99.90
2022-10-26T07:09:33.214Z,99.90
2022-10-26T07:12:01.227Z,99.90
2022-10-26T07:16:57.530Z,99.90
2022-10-26T07:26:56.178Z,99.90
2022-10-26T07:29:24.232Z,99.90
2022-10-26T07:34:21.739Z,99.90
2022-10-26T07:41:51.892Z,99.90
2022-10-26T07:49:19.218Z,99.90
2022-10-26T07:51:47.419Z,99.90
2022-10-26T07:56:44.683Z,99.90
2022-10-26T07:59:13.133Z,99.90
2022-10-26T08:16:35.338Z,99.90
2022-10-26T08:19:03.299Z,99.90
2022-10-26T08:21:46.400Z,99.90
2022-10-26T08:26:43.240Z,99.90
2022-10-26T08:29:12.331Z,99.90
2022-10-26T08:31:40.114Z,99.90
2022-10-26T08:34:07.937Z,99.90
2022-10-26T08:36:35.828Z,99.90
2022-10-26T08:39:03.618Z,99.90
2022-10-26T08:41:37.703Z,99.90
2022-10-26T08:44:13.018Z,99.90
2022-10-26T08:46:47.285Z,99.90
2022-10-26T08:49:21.336Z,99.90
2022-10-26T08:51:51.519Z,99.90
2022-10-26T08:54:24.535Z,99.90
2022-10-26T08:56:56.589Z,99.90
2022-10-26T08:59:32.654Z,99.90
2022-10-26T09:02:02.785Z,99.90
2022-10-26T09:04:34.029Z,99.90
2022-10-26T09:07:09.469Z,99.90
2022-10-26T09:09:46.313Z,99.90
2022-10-26T09:12:20.952Z,99.90
2022-10-26T09:14:57.823Z,99.90
2022-10-26T09:17:39.582Z,99.90
2022-10-26T09:20:26.793Z,99.90
2022-10-26T09:23:03.362Z,99.90
2022-10-26T09:25:38.979Z,99.90
2022-10-26T09:28:10.870Z,99.90
2022-10-26T09:30:38.912Z,99.90
2022-10-26T09:33:16.137Z,99.90
2022-10-26T09:35:47.195Z,99.90
2022-10-26T09:38:17.779Z,99.90
2022-10-26T09:40:53.908Z,99.90
2022-10-26T09:43:27.584Z,99.90
2022-10-26T09:45:55.531Z,99.90
2022-10-26T09:48:32.134Z,99.90
2022-10-26T09:51:03.554Z,99.90
2022-10-26T09:53:33.274Z,99.90
2022-10-26T09:56:07.180Z,99.90
2022-10-26T09:58:41.289Z,99.90
2022-10-26T10:01:22.632Z,99.90
2022-10-26T10:04:11.647Z,99.90
2022-10-26T10:06:39.854Z,99.90
2022-10-26T10:09:12.045Z,99.90
2022-10-26T10:11:41.318Z,99.90
2022-10-26T10:14:14.880Z,99.90
2022-10-26T10:16:50.329Z,99.90
2022-10-26T10:19:24.266Z,99.90
2022-10-26T10:21:55.229Z,99.90
2022-10-26T10:24:25.545Z,99.90
2022-10-26T10:26:59.275Z,99.90
2022-10-26T10:29:27.895Z,99.90
2022-10-26T10:32:00.719Z,99.90
2022-10-26T10:34:32.111Z,99.90
2022-10-26T10:37:01.661Z,99.90
2022-10-26T10:39:39.012Z,99.90
2022-10-26T10:42:18.229Z,99.90
2022-10-26T10:44:47.346Z,99.90
2022-10-26T10:49:55.673Z,99.90
2022-10-26T10:52:26.236Z,99.90
2022-10-26T10:55:01.361Z,99.90
2022-10-26T10:57:37.894Z,97.50
2022-10-26T11:00:07.795Z,99.90
2022-10-26T11:03:02.631Z,99.80
2022-10-26T11:05:54.869Z,99.80
2022-10-26T11:08:27.663Z,97.70
2022-10-26T11:11:01.098Z,99.90
2022-10-26T11:13:34.655Z,99.90
2022-10-26T11:16:05.661Z,99.90
2022-10-26T11:18:37.113Z,97.80
2022-10-26T11:21:15.092Z,99.90
2022-10-26T11:23:46.715Z,99.90
2022-10-26T11:26:20.395Z,99.90
2022-10-26T11:28:53.998Z,97.60
2022-10-26T11:31:26.407Z,99.90
2022-10-26T11:34:09.160Z,99.90
2022-10-26T11:36:40.754Z,99.90
2022-10-26T11:39:15.647Z,97.90
2022-10-26T11:41:50.570Z,99.90
2022-10-26T11:44:23.717Z,99.90
2022-10-26T11:46:56.890Z,99.90
2022-10-26T11:49:30.532Z,97.80
2022-10-26T11:52:06.942Z,99.90
2022-10-26T11:54:38.231Z,99.90
2022-10-26T11:57:06.649Z,99.90
2022-10-26T11:59:40.017Z,97.80
2022-10-26T12:02:15.238Z,99.90
2022-10-26T12:04:44.394Z,99.90
2022-10-26T12:07:22.204Z,99.90
2022-10-26T12:09:50.781Z,97.80
2022-10-26T12:12:24.885Z,99.90
2022-10-26T12:14:58.947Z,99.90
2022-10-26T12:17:31.958Z,97.80
2022-10-26T12:20:06.004Z,99.90
2022-10-26T12:22:39.965Z,99.90
2022-10-26T12:25:19.910Z,99.90
2022-10-26T12:27:55.905Z,97.90
2022-10-26T12:30:30.695Z,99.90
2022-10-26T12:33:00.305Z,99.90
2022-10-26T12:35:36.535Z,99.90
2022-10-26T12:38:43.565Z,98.00
2022-10-26T12:41:23.647Z,99.90
2022-10-26T12:43:51.698Z,99.90
2022-10-26T12:46:46.384Z,99.90
2022-10-26T12:49:58.708Z,98.00
2022-10-26T12:52:50.212Z,99.90
2022-10-26T12:56:05.325Z,98.40
2022-10-26T12:59:04.927Z,98.10
2022-10-26T13:02:09.196Z,99.90
2022-10-26T13:04:56.048Z,99.90
2022-10-26T13:07:26.037Z,98.10
2022-10-26T13:09:59.368Z,99.90
2022-10-26T13:12:36.805Z,99.90
2022-10-26T13:15:07.539Z,99.90
2022-10-26T13:17:38.461Z,98.20
2022-10-26T13:20:08.329Z,99.90
2022-10-26T13:22:47.622Z,98.30
2022-10-26T13:25:23.483Z,99.90
2022-10-26T13:28:03.027Z,98.20
2022-10-26T13:30:43.850Z,99.90
2022-10-26T13:33:24.146Z,95.10
2022-10-26T13:35:58.094Z,79.40
2022-10-26T13:38:32.676Z,62.10
2022-10-26T13:41:15.007Z,67.10
2022-10-26T13:43:45.105Z,72.50
2022-10-26T13:46:27.647Z,70.00
2022-10-26T13:49:02.661Z,74.70
2022-10-26T13:51:40.999Z,77.70
2022-10-26T13:54:19.276Z,69.60
2022-10-26T13:57:04.814Z,47.10
2022-10-26T13:59:38.833Z,35.30
2022-10-26T14:02:16.702Z,40.40
2022-10-26T14:04:48.011Z,45.90
2022-10-26T14:07:23.060Z,45.60
2022-10-26T14:09:52.679Z,44.50
2022-10-26T14:12:20.870Z,40.10
2022-10-26T14:14:51.104Z,35.40
2022-10-26T14:17:21.505Z,38.10
2022-10-26T14:19:50.366Z,34.20
2022-10-26T14:22:23.243Z,33.90
2022-10-26T14:27:34.503Z,26.20
2022-10-26T14:30:23.173Z,29.80
2022-10-26T14:32:52.260Z,27.20
2022-10-26T14:35:23.648Z,23.90
2022-10-26T14:37:54.128Z,24.20
2022-10-26T14:40:24.069Z,28.10
2022-10-26T14:42:54.757Z,26.90
2022-10-26T14:45:49.182Z,25.10
2022-10-26T14:48:24.318Z,21.10
2022-10-26T14:51:02.965Z,24.90
2022-10-26T14:53:37.710Z,23.10
2022-10-26T14:56:07.102Z,18.10
2022-10-26T14:58:36.159Z,12.90
2022-10-26T15:01:31.634Z,18.30
2022-10-26T15:04:04.792Z,21.70
2022-10-26T15:06:42.004Z,20.50
2022-10-26T15:09:32.929Z,20.40
2022-10-26T15:12:02.797Z,24.30
2022-10-26T15:14:30.905Z,24.50
2022-10-26T15:17:00.830Z,26.20
2022-10-26T15:19:29.487Z,25.80
2022-10-26T15:21:57.642Z,30.80
2022-10-26T15:24:35.951Z,33.20
2022-10-26T15:27:15.549Z,36.60
2022-10-26T15:29:45.457Z,29.40
2022-10-26T15:32:32.185Z,34.50
2022-10-26T15:35:16.339Z,37.20
2022-10-26T15:37:44.153Z,37.80
2022-10-26T15:40:12.635Z,43.00
2022-10-26T15:42:42.316Z,45.00
2022-10-26T15:45:19.423Z,47.60
2022-10-26T15:47:50.129Z,47.20
2022-10-26T15:50:20.140Z,52.60
2022-10-26T15:52:49.387Z,54.70
2022-10-26T15:55:18.216Z,60.90
2022-10-26T15:57:46.020Z,67.70
2022-10-26T16:00:18.056Z,74.00
2022-10-26T16:02:48.344Z,76.50
2022-10-26T16:05:17.247Z,79.60
2022-10-26T16:07:47.574Z,88.50
2022-10-26T16:10:20.611Z,93.20
2022-10-26T16:12:50.094Z,99.90
2022-10-26T16:15:20.061Z,98.30
2022-10-26T16:20:18.996Z,98.30
2022-10-26T16:22:49.167Z,99.90
2022-10-26T16:25:19.299Z,99.90
2022-10-26T16:27:47.276Z,99.90
2022-10-26T16:30:15.396Z,98.10
2022-10-26T16:32:43.909Z,98.20
2022-10-26T16:35:12.772Z,98.10
2022-10-26T16:37:41.991Z,98.20
2022-10-26T16:40:10.743Z,98.20
2022-10-26T16:42:43.656Z,99.90
2022-10-26T16:45:11.860Z,99.90
2022-10-26T16:47:40.034Z,99.90
2022-10-26T16:50:08.839Z,98.10
2022-10-26T16:52:37.822Z,99.90
2022-10-26T16:55:08.487Z,99.90
2022-10-26T16:57:37.409Z,99.90
2022-10-26T17:00:06.714Z,99.90
2022-10-26T17:02:34.906Z,99.90
2022-10-26T17:05:06.074Z,99.90
2022-10-26T17:07:35.514Z,99.90
2022-10-26T17:10:03.261Z,99.90
2022-10-26T17:12:32.627Z,99.90
2022-10-26T17:15:01.418Z,99.90
2022-10-26T17:17:29.283Z,99.90
2022-10-26T17:19:57.251Z,99.90
2022-10-26T17:22:25.089Z,99.90
2022-10-26T17:24:52.865Z,99.90
2022-10-26T17:27:21.141Z,99.90
2022-10-26T17:29:50.254Z,99.90
2022-10-26T17:32:18.123Z,99.90
2022-10-26T17:37:14.043Z,99.90
2022-10-26T17:39:41.834Z,99.90
2022-10-26T17:42:10.594Z,99.90
2022-10-26T17:44:39.207Z,99.90
2022-10-26T17:47:09.886Z,99.90
2022-10-26T17:49:37.652Z,99.90
2022-10-26T17:52:06.540Z,99.90
2022-10-26T17:54:34.530Z,99.90
2022-10-26T17:57:02.252Z,99.90
2022-10-26T17:59:30.180Z,99.90
2022-10-26T18:01:58.146Z,99.90
2022-10-26T18:04:27.338Z,99.90
2022-10-26T18:06:55.100Z,99.90
2022-10-26T18:09:22.932Z,99.90
2022-10-26T18:11:53.440Z,99.90
2022-10-26T18:14:23.751Z,99.90
2022-10-26T18:16:51.672Z,99.90
2022-10-26T18:19:19.564Z,99.90
2022-10-26T18:21:48.607Z,99.90
2022-10-26T18:24:16.360Z,99.90
2022-10-26T18:26:44.182Z,99.90
2022-10-26T18:29:13.770Z,99.90
2022-10-26T18:31:41.583Z,99.90
2022-10-26T18:34:10.976Z,99.90
2022-10-26T18:36:38.773Z,99.90
2022-10-26T18:39:08.268Z,99.90
2022-10-26T18:41:36.183Z,99.90
2022-10-26T18:44:04.252Z,99.90
2022-10-26T18:46:39.312Z,99.90
2022-10-26T18:49:07.172Z,99.90
2022-10-26T18:51:36.093Z,99.90
2022-10-26T18:54:04.325Z,99.90
2022-10-26T18:56:33.424Z,99.90
2022-10-26T18:59:02.561Z,99.90
2022-10-26T19:01:32.039Z,99.90
2022-10-26T19:04:01.662Z,99.90
2022-10-26T19:06:31.406Z,99.90
2022-10-26T19:08:59.745Z,99.90
2022-10-26T19:11:29.375Z,99.90
2022-10-26T19:13:59.169Z,99.90
2022-10-26T19:19:16.608Z,99.90
2022-10-26T19:24:15.069Z,99.90
2022-10-26T19:26:44.015Z,99.90
2022-10-26T19:29:16.081Z,99.90
2022-10-26T19:31:45.042Z,99.90
2022-10-26T19:34:14.538Z,99.90
2022-10-26T19:36:44.910Z,99.90
2022-10-26T19:39:13.980Z,99.90
2022-10-26T19:41:42.004Z,99.90
2022-10-26T19:44:11.382Z,99.90
2022-10-26T19:46:40.742Z,99.90
2022-10-26T19:51:37.204Z,99.90
2022-10-26T19:54:06.692Z,99.90
2022-10-26T19:56:35.561Z,99.90
2022-10-26T19:59:03.399Z,99.90
2022-10-26T20:01:31.241Z,99.90
2022-10-26T20:04:02.218Z,99.90
2022-10-26T20:06:30.787Z,99.90
2022-10-26T20:08:58.789Z,99.90
2022-10-26T20:11:26.553Z,99.90
2022-10-26T20:16:23.800Z,99.90
2022-10-26T20:21:21.521Z,99.90
2022-10-26T20:23:50.223Z,99.90
2022-10-26T20:26:19.428Z,99.90
2022-10-26T20:31:20.219Z,99.90
2022-10-26T20:33:51.854Z,99.90
2022-10-26T20:36:21.120Z,99.90
2022-10-26T20:38:49.601Z,99.90
2022-10-26T20:41:18.238Z,99.90
2022-10-26T20:43:46.687Z,99.90
2022-10-26T20:46:22.450Z,99.90
2022-10-26T20:51:26.403Z,99.90
2022-10-26T20:54:10.235Z,99.90
2022-10-26T20:56:41.419Z,99.90
2022-10-26T20:59:24.628Z,99.90
2022-10-26T21:01:52.468Z,99.90
2022-10-26T21:04:21.066Z,99.90
2022-10-26T21:06:50.282Z,99.90
2022-10-26T21:09:18.460Z,99.90
2022-10-26T21:11:46.816Z,99.90
2022-10-26T21:14:14.515Z,99.90
2022-10-26T21:19:14.610Z,99.90
2022-10-26T21:21:42.377Z,99.90
2022-10-26T21:24:11.750Z,99.90
2022-10-26T21:26:41.029Z,99.90
2022-10-26T21:29:09.085Z,99.90
2022-10-26T21:31:36.882Z,99.90
2022-10-26T21:34:06.082Z,99.90
2022-10-26T21:36:33.977Z,99.90
2022-10-26T21:39:01.965Z,99.90
2022-10-26T21:44:08.823Z,99.90
2022-10-26T21:46:38.986Z,99.90
2022-10-26T21:49:07.168Z,99.90
2022-10-26T21:51:35.855Z,99.90
2022-10-26T21:54:03.905Z,99.90
2022-10-26T21:56:32.986Z,99.90
2022-10-26T21:59:01.690Z,99.90
2022-10-26T22:01:29.769Z,99.90
2022-10-26T22:03:57.763Z,99.90
2022-10-26T22:06:25.617Z,99.90
2022-10-26T22:08:53.733Z,99.90
2022-10-26T22:11:23.336Z,99.90
2022-10-26T22:13:53.849Z,99.90
2022-10-26T22:16:24.133Z,99.90
2022-10-26T22:18:55.612Z,99.90
2022-10-26T22:21:27.958Z,99.90
2022-10-26T22:23:56.479Z,99.90
2022-10-26T22:26:28.119Z,99.90
2022-10-26T22:28:58.439Z,99.90
2022-10-26T22:34:03.374Z,99.90
2022-10-26T22:36:34.495Z,99.90
2022-10-26T22:39:02.531Z,99.90
2022-10-26T22:41:30.497Z,99.90
2022-10-26T22:43:59.866Z,99.90
2022-10-26T22:46:29.389Z,99.90
2022-10-26T22:48:58.543Z,99.90
2022-10-26T22:51:29.338Z,99.90
2022-10-26T22:53:59.029Z,99.90
2022-10-26T22:56:28.255Z,99.90
2022-10-26T22:58:56.378Z,99.90
